Time;durP1;ratioP1;P1;durP2;ratioP2;P2;SDS_P1;SDS_P2;PMS_P1;PMS_P2;Temp;Humidity;BMP_temperature;BMP_pressure;BME280_temperature;BME280_humidity;BME280_pressure;Samples;Min_cycle;Max_cycle;Signal;HPM_P1;HPM_P2
2021/06/23 00:01:33;;;;;;;14.88;6.53;;;;;;;17.24;100.00;96265.16;5046201;28;20024;-78
2021/06/23 00:03:59;;;;;;;9.52;5.60;;;;;;;17.23;100.00;96268.81;5046624;28;20037;-78
2021/06/23 00:06:25;;;;;;;9.82;5.78;;;;;;;17.26;100.00;96279.03;5046284;28;20402;-78
2021/06/23 00:08:50;;;;;;;9.32;5.43;;;;;;;17.26;100.00;96280.88;5051790;28;20035;-78
2021/06/23 00:11:16;;;;;;;7.70;5.53;;;;;;;17.23;100.00;96286.59;5058263;28;20306;-78
2021/06/23 00:13:42;;;;;;;7.18;5.55;;;;;;;17.18;100.00;96301.31;5048321;28;20079;-78
2021/06/23 00:16:08;;;;;;;7.90;5.90;;;;;;;17.15;100.00;96306.19;5046539;28;20051;-79
2021/06/23 00:18:35;;;;;;;8.60;6.50;;;;;;;17.09;100.00;96317.63;5044530;28;20163;-78
2021/06/23 00:21:01;;;;;;;9.13;6.07;;;;;;;17.01;100.00;96310.66;5046921;28;20027;-80
2021/06/23 00:23:27;;;;;;;10.45;7.50;;;;;;;16.98;100.00;96313.69;5049270;28;20037;-80
2021/06/23 00:25:52;;;;;;;10.05;6.63;;;;;;;17.03;100.00;96318.41;5052859;28;20024;-80
2021/06/23 00:28:18;;;;;;;9.88;7.55;;;;;;;16.99;100.00;96320.63;5048541;28;20122;-80
2021/06/23 00:30:44;;;;;;;11.00;7.32;;;;;;;17.02;100.00;96316.78;5032566;28;20028;-80
2021/06/23 00:33:16;;;;;;;8.15;6.97;;;;;;;17.02;100.00;96311.47;5056624;28;20043;-80
2021/06/23 00:35:42;;;;;;;11.13;7.93;;;;;;;17.00;100.00;96311.66;5055400;28;20701;-79
2021/06/23 00:38:08;;;;;;;9.32;7.47;;;;;;;17.02;100.00;96312.28;5052117;28;20037;-80
2021/06/23 00:40:35;;;;;;;9.93;8.10;;;;;;;17.01;100.00;96310.66;5058770;28;20032;-80
2021/06/23 00:43:02;;;;;;;8.38;7.30;;;;;;;17.03;100.00;96300.63;5068329;28;20025;-80
2021/06/23 00:45:29;;;;;;;11.23;7.72;;;;;;;16.96;100.00;96305.09;5053729;28;20036;-79
2021/06/23 00:47:56;;;;;;;11.07;8.13;;;;;;;16.82;100.00;96293.59;5047129;28;20020;-80
2021/06/23 00:50:26;;;;;;;8.85;7.95;;;;;;;16.85;100.00;96287.06;5057185;28;20040;-79
2021/06/23 00:53:27;;;;;;;9.45;8.35;;;;;;;16.87;100.00;96291.16;5045686;28;20045;-79
2021/06/23 00:55:55;;;;;;;10.00;8.35;;;;;;;16.85;100.00;96300.34;5049613;28;20114;-80
2021/06/23 00:58:23;;;;;;;13.43;8.65;;;;;;;16.71;100.00;96300.25;5054285;28;20070;-80
2021/06/23 01:00:52;;;;;;;10.52;9.02;;;;;;;16.70;100.00;96295.13;5048537;28;20126;-80
2021/06/23 01:03:20;;;;;;;11.73;10.52;;;;;;;16.85;100.00;96295.03;5045688;28;20024;-80
2021/06/23 01:05:57;;;;;;;10.88;9.77;;;;;;;16.75;100.00;96291.91;5038236;28;20527;-80
2021/06/23 01:08:23;;;;;;;13.13;10.95;;;;;;;16.81;100.00;96288.47;5055611;28;20553;-80
2021/06/23 01:10:50;;;;;;;11.45;10.10;;;;;;;16.81;100.00;96289.28;5048931;28;20048;-80
2021/06/23 01:13:28;;;;;;;12.55;10.52;;;;;;;16.86;100.00;96278.88;5031091;28;20029;-80
2021/06/23 01:15:55;;;;;;;9.00;7.28;;;;;;;16.83;100.00;96281.13;5038888;28;20102;-79
2021/06/23 01:18:25;;;;;;;8.63;6.50;;;;;;;16.57;100.00;96281.78;5053330;28;20025;-78
2021/06/23 01:20:51;;;;;;;6.88;6.00;;;;;;;16.52;100.00;96285.00;5056934;28;20095;-78
2021/06/23 01:23:18;;;;;;;11.77;7.22;;;;;;;16.45;100.00;96289.47;5049632;28;20059;-78
2021/06/23 01:25:48;;;;;;;9.10;7.25;;;;;;;16.41;100.00;96282.91;5050128;28;20052;-78
2021/06/23 01:28:13;;;;;;;9.73;6.93;;;;;;;16.44;100.00;96282.53;5049363;28;20041;-78
2021/06/23 01:30:45;;;;;;;8.32;7.07;;;;;;;16.53;100.00;96281.34;5049343;28;20090;-78
2021/06/23 01:33:23;;;;;;;9.93;7.60;;;;;;;16.64;100.00;96270.19;5036329;28;20101;-78
2021/06/23 01:35:49;;;;;;;7.55;6.20;;;;;;;16.67;100.00;96267.13;5049739;28;20644;-78
2021/06/23 01:38:16;;;;;;;8.65;6.50;;;;;;;16.72;100.00;96270.00;5049210;28;20067;-78
2021/06/23 01:40:42;;;;;;;7.68;5.68;;;;;;;16.74;100.00;96261.84;5030359;28;20666;-78
2021/06/23 01:43:09;;;;;;;8.90;6.22;;;;;;;16.73;100.00;96263.69;5049502;28;20094;-78
2021/06/23 01:45:37;;;;;;;7.15;6.10;;;;;;;16.70;100.00;96250.81;5049596;28;20036;-78
2021/06/23 01:48:05;;;;;;;9.73;6.35;;;;;;;16.67;100.00;96250.38;5048355;28;20017;-78
2021/06/23 01:50:31;;;;;;;8.10;6.70;;;;;;;16.69;100.00;96246.50;5049599;28;20490;-78
2021/06/23 01:52:59;;;;;;;10.25;7.03;;;;;;;16.67;100.00;96242.44;5055208;28;20723;-78
2021/06/23 01:55:28;;;;;;;9.55;7.80;;;;;;;16.54;100.00;96232.56;5053003;28;20032;-78
2021/06/23 01:58:08;;;;;;;10.55;8.50;;;;;;;16.31;100.00;96226.72;5049639;28;20060;-78
2021/06/23 02:01:09;;;;;;;11.80;9.52;;;;;;;16.35;100.00;96222.63;5051890;28;20025;-78
2021/06/23 02:03:42;;;;;;;10.25;8.18;;;;;;;16.45;100.00;96223.91;5051329;28;20036;-79
2021/06/23 02:06:17;;;;;;;10.90;8.68;;;;;;;16.57;100.00;96218.88;5051425;28;20032;-77
2021/06/23 02:08:58;;;;;;;13.30;8.63;;;;;;;16.47;100.00;96213.13;5059273;28;20458;-78
2021/06/23 02:11:49;;;;;;;10.48;8.60;;;;;;;16.48;100.00;96204.13;5052229;28;20060;-78
2021/06/23 02:14:36;;;;;;;10.93;9.82;;;;;;;16.42;100.00;96200.41;5051562;28;20108;-78
2021/06/23 02:17:23;;;;;;;14.00;9.95;;;;;;;16.33;100.00;96196.31;5047778;28;20044;-78
2021/06/23 02:19:59;;;;;;;10.45;9.27;;;;;;;16.40;100.00;96202.47;5052838;28;20094;-79
2021/06/23 02:22:38;;;;;;;24.25;10.48;;;;;;;16.45;100.00;96207.19;5057380;28;20068;-78
2021/06/23 02:25:13;;;;;;;13.15;9.80;;;;;;;16.52;100.00;96209.88;5055911;28;20088;-78
2021/06/23 02:27:55;;;;;;;10.43;8.65;;;;;;;16.54;100.00;96213.16;5058725;28;20084;-78
2021/06/23 02:30:21;;;;;;;10.88;9.25;;;;;;;16.58;100.00;96215.22;5043660;28;20048;-78
2021/06/23 02:32:56;;;;;;;11.77;9.52;;;;;;;16.57;100.00;96207.44;5047755;28;20029;-78
2021/06/23 02:35:30;;;;;;;11.10;9.95;;;;;;;16.63;100.00;96211.94;5048383;28;20030;-78
2021/06/23 02:37:58;;;;;;;11.88;10.60;;;;;;;16.55;100.00;96218.25;5032779;28;20025;-78
2021/06/23 02:40:25;;;;;;;13.48;12.07;;;;;;;16.52;100.00;96221.28;5049590;28;20021;-78
2021/06/23 02:43:09;;;;;;;14.65;11.52;;;;;;;16.52;100.00;96229.25;5050972;28;20657;-78
2021/06/23 02:45:36;;;;;;;13.35;11.95;;;;;;;16.42;100.00;96212.88;5051204;28;20885;-78
2021/06/23 02:48:03;;;;;;;15.13;13.27;;;;;;;16.47;100.00;96202.50;5049251;28;20454;-78
2021/06/23 02:51:21;;;;;;;14.52;13.10;;;;;;;16.39;100.00;96195.50;5035848;28;20447;-78
2021/06/23 02:53:56;;;;;;;14.18;12.68;;;;;;;16.31;100.00;96200.97;5049973;28;20136;-78
2021/06/23 02:56:26;;;;;;;13.85;12.45;;;;;;;16.32;100.00;96212.41;5049925;28;20730;-78
2021/06/23 02:58:54;;;;;;;13.77;12.10;;;;;;;16.30;100.00;96223.25;5048586;28;20044;-78
2021/06/23 03:01:21;;;;;;;14.13;12.45;;;;;;;16.31;100.00;96229.34;5034114;28;20033;-78
2021/06/23 03:03:52;;;;;;;15.60;13.02;;;;;;;16.32;100.00;96233.63;5047578;28;20037;-78
2021/06/23 03:06:22;;;;;;;13.48;12.07;;;;;;;16.37;100.00;96240.00;5031120;28;20120;-78
2021/06/23 03:08:51;;;;;;;12.40;11.10;;;;;;;16.32;100.00;96238.94;5039485;28;20029;-78
2021/06/23 03:11:39;;;;;;;13.90;11.38;;;;;;;16.32;100.00;96244.25;5046050;28;20508;-78
2021/06/23 03:14:22;;;;;;;19.75;11.52;;;;;;;16.29;100.00;96257.91;5044279;28;20079;-78
2021/06/23 03:16:51;;;;;;;15.10;9.82;;;;;;;16.26;100.00;96262.63;5048638;28;20647;-78
2021/06/23 03:19:16;;;;;;;24.88;11.88;;;;;;;16.19;100.00;96272.34;5047380;28;20112;-78
2021/06/23 03:21:43;;;;;;;29.15;12.13;;;;;;;16.18;100.00;96278.66;5047594;28;20482;-78
2021/06/23 03:24:10;;;;;;;19.25;11.48;;;;;;;16.10;100.00;96276.16;5054745;28;20025;-79
2021/06/23 03:26:37;;;;;;;12.82;11.63;;;;;;;16.19;100.00;96290.09;5043209;28;20094;-78
2021/06/23 03:29:18;;;;;;;13.85;12.45;;;;;;;16.14;100.00;96290.69;5046722;28;20104;-78
2021/06/23 03:31:45;;;;;;;14.65;12.93;;;;;;;16.07;100.00;96292.47;5047268;28;20083;-78
2021/06/23 03:34:12;;;;;;;14.30;12.90;;;;;;;16.07;100.00;96287.16;5047475;28;20025;-78
2021/06/23 03:36:58;;;;;;;15.00;13.40;;;;;;;16.09;100.00;96295.72;5054117;28;20140;-78
2021/06/23 03:39:23;;;;;;;14.43;12.98;;;;;;;16.13;100.00;96302.31;5056680;28;20025;-78
2021/06/23 03:41:56;;;;;;;17.10;15.32;;;;;;;16.04;100.00;96303.47;5050962;28;20029;-79
2021/06/23 03:44:22;;;;;;;16.80;15.10;;;;;;;16.04;100.00;96308.75;5045984;28;20040;-78
2021/06/23 03:46:48;;;;;;;17.50;15.70;;;;;;;15.99;100.00;96313.81;5046771;28;20054;-78
2021/06/23 03:49:14;;;;;;;16.45;14.82;;;;;;;15.96;100.00;96320.34;5046177;28;20513;-78
2021/06/23 03:51:41;;;;;;;17.88;16.02;;;;;;;16.07;100.00;96319.00;5047151;28;20106;-78
2021/06/23 03:54:07;;;;;;;18.35;15.95;;;;;;;16.10;100.00;96323.91;5052459;28;20580;-78
2021/06/23 03:56:36;;;;;;;18.95;17.05;;;;;;;15.99;100.00;96321.75;5047838;28;20039;-78
2021/06/23 03:59:03;;;;;;;18.67;16.15;;;;;;;16.03;100.00;96333.66;5051834;28;20698;-78
2021/06/23 04:01:29;;;;;;;18.58;16.50;;;;;;;15.90;100.00;96331.69;5065785;28;20438;-78
2021/06/23 04:04:21;;;;;;;18.25;16.38;;;;;;;15.92;100.00;96345.56;5041373;28;20490;-78
2021/06/23 04:07:06;;;;;;;16.35;14.65;;;;;;;15.88;100.00;96352.28;5031837;28;20044;-78
2021/06/23 04:09:32;;;;;;;18.58;16.67;;;;;;;15.89;100.00;96353.09;5046716;28;20122;-78
2021/06/23 04:12:02;;;;;;;18.23;16.38;;;;;;;15.95;100.00;96349.69;5045294;28;20021;-78
2021/06/23 04:14:34;;;;;;;19.83;17.73;;;;;;;15.88;100.00;96336.38;5051748;28;20033;-78
2021/06/23 04:17:01;;;;;;;23.73;17.85;;;;;;;15.94;100.00;96332.97;5028478;28;20040;-78
2021/06/23 04:19:27;;;;;;;17.70;15.77;;;;;;;15.93;100.00;96333.16;5046054;28;20028;-78
2021/06/23 04:21:57;;;;;;;19.90;16.65;;;;;;;15.93;100.00;96327.84;5045170;28;20029;-78
2021/06/23 04:24:23;;;;;;;13.90;12.50;;;;;;;15.86;100.00;96337.56;5029096;28;20043;-78
2021/06/23 04:26:49;;;;;;;15.57;13.98;;;;;;;16.01;100.00;96335.66;5068920;28;20566;-78
2021/06/23 04:29:17;;;;;;;15.48;13.30;;;;;;;16.15;100.00;96328.63;5044094;28;20061;-78
2021/06/23 04:31:45;;;;;;;14.07;12.23;;;;;;;16.20;100.00;96332.38;5044911;28;20359;-78
2021/06/23 04:34:14;;;;;;;13.68;11.48;;;;;;;16.30;100.00;96324.09;5029835;28;20041;-77
2021/06/23 04:36:42;;;;;;;12.60;10.85;;;;;;;16.33;100.00;96326.34;5044913;28;20032;-78
2021/06/23 04:39:07;;;;;;;11.60;10.35;;;;;;;16.39;100.00;96319.44;5044302;28;20044;-78
2021/06/23 04:41:44;;;;;;;12.63;10.88;;;;;;;16.45;100.00;96310.69;5029412;28;20059;-78
2021/06/23 04:44:11;;;;;;;14.98;10.90;;;;;;;16.47;100.00;96319.31;5029053;28;20502;-78
2021/06/23 04:46:37;;;;;;;10.60;9.35;;;;;;;16.54;100.00;96319.34;5036423;28;20089;-79
2021/06/23 04:49:03;;;;;;;11.93;10.73;;;;;;;16.49;100.00;96317.25;5043856;28;20037;-78
2021/06/23 04:51:48;;;;;;;13.18;11.80;;;;;;;16.48;100.00;96324.41;5042660;28;20060;-78
2021/06/23 04:54:14;;;;;;;12.93;11.43;;;;;;;16.56;100.00;96320.75;5039872;28;20363;-79
2021/06/23 04:56:41;;;;;;;25.02;21.95;;;;;;;16.57;100.00;96317.13;5044754;28;20029;-78
2021/06/23 04:59:07;;;;;;;20.02;17.92;;;;;;;16.46;100.00;96317.63;5044560;28;20029;-78
2021/06/23 05:01:33;;;;;;;17.52;15.75;;;;;;;16.43;100.00;96318.03;5042292;28;20036;-78
2021/06/23 05:03:59;;;;;;;12.73;11.40;;;;;;;16.41;100.00;96323.53;5045274;28;20048;-78
2021/06/23 05:06:25;;;;;;;12.13;10.73;;;;;;;16.33;100.00;96326.34;5028124;28;20029;-78
2021/06/23 05:08:52;;;;;;;11.85;10.60;;;;;;;16.31;100.00;96328.38;5040108;28;20043;-78
2021/06/23 05:11:17;;;;;;;14.60;10.07;;;;;;;16.29;100.00;96322.41;5045820;28;20029;-78
2021/06/23 05:13:43;;;;;;;12.10;10.80;;;;;;;16.24;100.00;96327.50;5045948;28;20111;-78
2021/06/23 05:16:10;;;;;;;12.13;10.82;;;;;;;16.43;100.00;96325.97;5029133;28;20120;-77
2021/06/23 05:18:36;;;;;;;13.98;9.88;;;;;;;16.65;100.00;96322.25;5060533;28;20576;-77
2021/06/23 05:21:03;;;;;;;12.18;10.52;;;;;;;16.84;100.00;96326.09;5028184;28;20029;-78
2021/06/23 05:23:29;;;;;;;16.52;10.30;;;;;;;16.82;100.00;96332.59;5028030;28;20064;-78
2021/06/23 05:25:55;;;;;;;11.23;9.10;;;;;;;16.86;100.00;96329.34;5044653;28;20067;-78
2021/06/23 05:28:21;;;;;;;11.50;10.30;;;;;;;17.26;100.00;96323.41;5045569;28;20036;-78
2021/06/23 05:30:47;;;;;;;10.77;9.40;;;;;;;17.36;100.00;96329.16;5045315;28;20021;-78
2021/06/23 05:33:13;;;;;;;11.30;10.05;;;;;;;17.07;100.00;96325.81;5044121;28;20041;-78
2021/06/23 05:35:39;;;;;;;13.23;8.75;;;;;;;16.94;100.00;96325.75;5037078;28;20025;-78
2021/06/23 05:38:04;;;;;;;11.80;8.07;;;;;;;17.20;100.00;96325.84;5040774;28;20526;-78
2021/06/23 05:40:30;;;;;;;8.20;6.75;;;;;;;17.01;100.00;96339.06;5043607;28;20654;-78
2021/06/23 05:42:56;;;;;;;7.45;6.10;;;;;;;17.14;100.00;96331.97;5045131;28;20705;-79
2021/06/23 05:45:24;;;;;;;5.00;3.03;;;;;;;17.00;98.81;96337.41;5044607;28;20120;-78
2021/06/23 05:47:49;;;;;;;10.40;5.00;;;;;;;17.14;99.46;96341.78;5041205;28;20526;-79
2021/06/23 05:50:15;;;;;;;7.05;5.10;;;;;;;17.13;100.00;96343.59;5044400;28;20040;-78
2021/06/23 05:52:41;;;;;;;6.80;5.55;;;;;;;16.92;100.00;96349.00;5045128;28;20124;-78
2021/06/23 05:55:07;;;;;;;6.90;5.93;;;;;;;16.96;100.00;96348.41;5041341;28;20025;-79
2021/06/23 05:57:33;;;;;;;8.70;5.65;;;;;;;16.92;100.00;96349.00;5044651;28;20108;-79
2021/06/23 05:59:59;;;;;;;7.55;5.68;;;;;;;16.98;100.00;96356.19;5044253;28;20478;-78
2021/06/23 06:02:24;;;;;;;7.20;5.18;;;;;;;17.28;99.40;96350.63;5043840;28;20406;-79
2021/06/23 06:04:50;;;;;;;5.60;4.57;;;;;;;18.47;93.32;96342.03;5027644;28;20039;-80
2021/06/23 06:07:16;;;;;;;7.93;4.85;;;;;;;18.61;91.54;96348.97;5046573;28;20048;-79
2021/06/23 06:09:41;;;;;;;6.93;4.20;;;;;;;18.06;91.47;96354.53;5048944;28;20068;-80
2021/06/23 06:12:08;;;;;;;6.72;3.67;;;;;;;18.19;90.02;96371.53;5048398;28;20048;-80
2021/06/23 06:14:34;;;;;;;7.43;4.53;;;;;;;18.86;89.55;96367.03;5032278;28;20025;-81
2021/06/23 06:17:00;;;;;;;5.70;4.05;;;;;;;19.50;87.82;96360.88;5045972;28;20043;-79
2021/06/23 06:19:26;;;;;;;7.75;4.43;;;;;;;19.59;86.13;96362.28;5048064;28;20028;-79
2021/06/23 06:21:54;;;;;;;7.80;4.80;;;;;;;19.46;90.06;96368.50;5047954;28;20486;-79
2021/06/23 06:24:20;;;;;;;26.08;5.15;;;;;;;19.72;85.86;96364.91;5048687;28;20032;-78
2021/06/23 06:26:45;;;;;;;4.82;3.75;;;;;;;19.35;86.51;96376.31;5049168;28;20029;-81
2021/06/23 06:29:11;;;;;;;4.25;3.15;;;;;;;19.22;87.33;96382.53;5033177;28;20025;-80
2021/06/23 06:31:37;;;;;;;5.63;3.20;;;;;;;19.45;86.93;96384.69;5050049;28;20162;-80
2021/06/23 06:34:02;;;;;;;4.50;2.95;;;;;;;19.30;86.81;96393.78;5048550;28;20540;-79
2021/06/23 06:36:28;;;;;;;5.38;2.70;;;;;;;19.28;83.53;96395.84;5031853;28;20453;-79
2021/06/23 06:38:54;;;;;;;4.47;2.22;;;;;;;19.34;83.54;96396.03;5047165;28;20116;-79
2021/06/23 06:41:19;;;;;;;4.00;2.50;;;;;;;19.53;82.48;96401.28;5049233;28;20028;-79
2021/06/23 06:43:45;;;;;;;7.40;2.70;;;;;;;19.29;84.58;96397.47;5047498;28;20128;-79
2021/06/23 06:46:11;;;;;;;4.25;2.40;;;;;;;19.48;81.61;96392.28;5048188;28;20037;-80
2021/06/23 06:48:38;;;;;;;5.55;2.50;;;;;;;19.66;82.13;96394.28;5046769;28;20028;-78
2021/06/23 06:51:04;;;;;;;5.05;2.33;;;;;;;20.02;81.53;96394.50;5048225;28;20051;-80
2021/06/23 06:53:31;;;;;;;7.40;2.30;;;;;;;19.50;84.07;96400.88;5065512;28;20029;-80
2021/06/23 06:55:57;;;;;;;4.28;2.10;;;;;;;19.77;79.30;96402.44;5031294;28;20775;-80
2021/06/23 06:58:22;;;;;;;1.83;1.02;;;;;;;19.95;74.15;96396.41;5046203;28;20116;-79
2021/06/23 07:00:48;;;;;;;3.13;1.77;;;;;;;19.86;76.84;96402.22;5063570;28;20574;-79
2021/06/23 07:03:14;;;;;;;3.70;2.42;;;;;;;20.64;73.42;96399.22;5031045;28;20048;-80
2021/06/23 07:05:39;;;;;;;7.53;3.13;;;;;;;21.28;73.02;96389.97;5041905;28;20029;-79
2021/06/23 07:08:05;;;;;;;4.15;2.13;;;;;;;21.32;72.57;96396.50;5046425;28;20107;-79
2021/06/23 07:10:31;;;;;;;4.25;2.35;;;;;;;20.65;74.70;96403.53;5047235;28;20025;-79
2021/06/23 07:12:57;;;;;;;3.10;2.22;;;;;;;22.24;70.89;96399.09;5047658;28;20048;-80
2021/06/23 07:15:22;;;;;;;4.93;3.40;;;;;;;22.13;67.99;96397.16;5030658;28;20040;-79
2021/06/23 07:17:51;;;;;;;6.32;4.22;;;;;;;22.48;67.00;96391.09;5044070;28;20017;-81
2021/06/23 07:20:17;;;;;;;7.45;3.50;;;;;;;23.72;63.68;96397.16;5046957;28;20045;-80
2021/06/23 07:22:43;;;;;;;5.57;3.60;;;;;;;23.19;65.81;96408.06;5046612;28;20039;-80
2021/06/23 07:25:09;;;;;;;6.57;4.38;;;;;;;21.96;70.26;96406.88;5046025;28;20032;-78
2021/06/23 07:27:35;;;;;;;7.78;4.95;;;;;;;23.17;68.13;96402.94;5046533;28;20021;-79
2021/06/23 07:30:01;;;;;;;8.00;4.40;;;;;;;23.93;64.44;96416.34;5046430;28;20037;-80
2021/06/23 07:32:34;;;;;;;6.88;4.85;;;;;;;23.02;67.55;96418.69;5042342;28;20020;-80
2021/06/23 07:37:44;;;;;;;5.88;4.40;;;;;;;25.26;61.18;96407.84;5045678;28;20044;-79
2021/06/23 07:40:11;;;;;;;6.65;4.30;;;;;;;26.06;56.03;96403.75;5045807;28;20044;-79
2021/06/23 07:42:36;;;;;;;7.88;4.25;;;;;;;25.84;55.64;96401.88;5046590;28;20123;-80
2021/06/23 07:45:04;;;;;;;5.75;4.32;;;;;;;24.93;61.30;96409.50;5048740;28;20037;-80
2021/06/23 07:47:33;;;;;;;6.30;4.68;;;;;;;23.96;62.20;96408.63;5031555;28;20056;-80
2021/06/23 07:50:00;;;;;;;7.32;4.75;;;;;;;26.16;56.60;96395.78;5048193;28;20501;-81
2021/06/23 08:08:47;;;;;;;4.45;2.50;;;;;;;28.62;44.84;96401.50;5048007;28;20025;-81
2021/06/23 08:11:31;;;;;;;6.85;2.50;;;;;;;26.38;53.44;96405.66;5062278;28;20072;-80
2021/06/23 08:13:58;;;;;;;2.88;2.03;;;;;;;28.55;47.68;96400.13;5036576;28;20037;-80
2021/06/23 08:16:24;;;;;;;4.28;2.50;;;;;;;28.03;48.97;96399.19;5047682;28;20025;-80
2021/06/23 08:18:50;;;;;;;4.72;2.25;;;;;;;29.04;46.20;96395.00;5040699;28;20128;-81
2021/06/23 08:21:15;;;;;;;3.20;1.90;;;;;;;28.79;44.79;96403.94;5048175;28;20021;-81
2021/06/23 08:23:41;;;;;;;4.03;2.67;;;;;;;27.80;48.32;96408.59;5047850;28;20395;-80
2021/06/23 08:26:07;;;;;;;4.22;2.53;;;;;;;28.46;47.15;96404.44;5046404;28;20023;-80
2021/06/23 08:28:33;;;;;;;3.17;1.95;;;;;;;29.07;44.85;96396.34;5045563;28;20198;-81
2021/06/23 08:30:59;;;;;;;3.25;2.13;;;;;;;28.83;44.91;96396.06;5046377;28;20021;-81
2021/06/23 08:33:27;;;;;;;3.83;2.20;;;;;;;26.95;48.28;96399.69;5046284;28;20116;-80
2021/06/23 08:35:54;;;;;;;3.70;1.75;;;;;;;27.94;44.38;96396.22;5045942;28;20033;-79
2021/06/23 08:38:22;;;;;;;2.45;1.50;;;;;;;28.72;43.20;96397.16;5045470;28;20086;-79
2021/06/23 08:40:48;;;;;;;2.00;1.55;;;;;;;28.33;43.69;96386.81;5045034;28;20023;-79
2021/06/23 08:43:16;;;;;;;2.38;1.63;;;;;;;28.35;43.42;96387.38;5045298;28;20460;-80
2021/06/23 08:45:42;;;;;;;2.38;1.60;;;;;;;25.75;48.55;96397.16;5045844;28;20103;-79
2021/06/23 08:48:09;;;;;;;2.03;1.63;;;;;;;27.00;46.84;96381.66;5029280;28;20068;-79
2021/06/23 08:50:35;;;;;;;3.10;1.90;;;;;;;28.12;42.73;96381.38;5046376;28;20029;-79
2021/06/23 08:53:00;;;;;;;2.63;1.77;;;;;;;29.20;42.65;96384.94;5045473;28;20033;-78
2021/06/23 08:55:26;;;;;;;4.97;3.28;;;;;;;29.16;44.68;96380.38;5045220;28;20543;-78
2021/06/23 08:57:52;;;;;;;3.67;2.40;;;;;;;28.64;43.84;96385.00;5044551;28;20037;-80
2021/06/23 09:00:22;;;;;;;3.55;2.25;;;;;;;29.96;40.64;96383.09;5045232;28;20053;-79
2021/06/23 09:02:47;;;;;;;2.28;1.73;;;;;;;26.50;47.46;96390.19;5045682;28;20116;-78
2021/06/23 09:05:16;;;;;;;1.98;1.58;;;;;;;26.73;46.52;96389.84;5045352;28;20051;-80
2021/06/23 09:07:45;;;;;;;3.65;1.90;;;;;;;28.14;43.36;96389.25;5044212;28;20028;-79
2021/06/23 09:10:26;;;;;;;4.32;2.30;;;;;;;29.70;41.15;96377.78;5040910;28;20026;-81
2021/06/23 09:13:04;;;;;;;2.08;1.60;;;;;;;29.70;40.92;96372.34;5045533;28;20092;-79
2021/06/23 09:15:42;;;;;;;4.85;3.30;;;;;;;30.16;39.88;96376.72;5044850;28;20071;-79
2021/06/23 09:18:11;;;;;;;4.85;3.28;;;;;;;31.34;39.17;96371.19;5026322;28;20057;-79
2021/06/23 09:20:38;;;;;;;2.83;1.70;;;;;;;29.64;40.32;96376.16;5039006;28;20513;-79
2021/06/23 09:23:03;;;;;;;2.25;1.50;;;;;;;31.07;37.62;96364.38;5043661;28;20036;-78
2021/06/23 09:25:32;;;;;;;1.52;1.15;;;;;;;31.09;37.09;96356.75;5061201;28;20033;-80
2021/06/23 09:28:00;;;;;;;1.33;1.20;;;;;;;28.98;41.82;96368.19;5045700;28;20032;-79
2021/06/23 09:30:36;;;;;;;2.00;1.33;;;;;;;27.86;44.03;96369.69;5044904;28;20045;-80
2021/06/23 09:33:18;;;;;;;1.77;1.35;;;;;;;30.36;38.66;96354.91;5045230;28;20366;-79
2021/06/23 09:35:46;;;;;;;2.22;1.10;;;;;;;28.72;41.57;96368.19;5045720;28;20032;-79
2021/06/23 09:38:36;;;;;;;1.17;0.93;;;;;;;29.39;37.88;96365.41;5028432;28;20033;-80
2021/06/23 09:41:03;;;;;;;2.15;1.63;;;;;;;29.64;38.08;96368.03;5046118;28;20504;-79
2021/06/23 09:43:41;;;;;;;5.70;3.40;;;;;;;28.55;40.94;96371.19;5048990;28;20499;-78
2021/06/23 09:46:21;;;;;;;6.05;2.88;;;;;;;30.12;38.29;96364.81;5043423;28;20068;-78
2021/06/23 09:48:48;;;;;;;6.10;2.90;;;;;;;31.89;35.45;96360.75;5063937;28;20033;-79
2021/06/23 09:51:19;;;;;;;2.85;1.27;;;;;;;32.12;34.44;96356.34;5049347;28;20036;-79
2021/06/23 09:53:46;;;;;;;1.43;1.03;;;;;;;29.82;37.77;96356.56;5048537;28;20718;-82
2021/06/23 09:56:29;;;;;;;1.25;1.05;;;;;;;29.11;38.15;96354.91;5047825;28;20786;-80
2021/06/23 09:58:56;;;;;;;1.10;0.90;;;;;;;29.71;37.35;96352.31;5041400;28;20063;-80
2021/06/23 10:01:23;;;;;;;1.98;1.00;;;;;;;29.87;33.63;96365.78;5032813;28;20104;-80
2021/06/23 10:03:54;;;;;;;2.35;0.80;;;;;;;31.98;30.74;96358.19;5049608;28;20075;-80
2021/06/23 10:06:26;;;;;;;1.77;1.00;;;;;;;30.87;34.57;96351.78;5049161;28;20039;-80
2021/06/23 10:09:10;;;;;;;1.52;0.90;;;;;;;33.46;30.59;96351.09;5040139;28;20041;-79
2021/06/23 10:11:36;;;;;;;2.42;0.90;;;;;;;32.93;32.69;96354.28;5044854;28;20543;-81
2021/06/23 10:14:02;;;;;;;0.90;0.80;;;;;;;32.97;32.22;96344.44;5034493;28;20027;-80
2021/06/23 10:16:28;;;;;;;6.10;4.78;;;;;;;33.81;31.68;96343.34;5048109;28;20119;-80
2021/06/23 10:18:54;;;;;;;2.53;1.38;;;;;;;33.13;32.60;96338.69;5048071;28;20383;-79
2021/06/23 10:21:22;;;;;;;1.23;0.80;;;;;;;33.74;30.56;96342.97;5048647;28;20502;-80
2021/06/23 10:23:48;;;;;;;0.80;0.80;;;;;;;29.28;36.10;96349.19;5048486;28;20055;-80
2021/06/23 10:26:16;;;;;;;1.85;0.70;;;;;;;29.60;36.87;96350.72;5048008;28;20052;-79
2021/06/23 10:28:43;;;;;;;2.63;1.05;;;;;;;30.62;36.01;96343.84;5047244;28;20025;-80
2021/06/23 10:31:10;;;;;;;0.73;0.73;;;;;;;31.79;31.91;96344.53;5040678;28;20094;-80
2021/06/23 10:33:39;;;;;;;2.03;0.80;;;;;;;32.62;30.99;96334.91;5049063;28;20367;-81
2021/06/23 10:36:06;;;;;;;6.25;1.27;;;;;;;32.28;32.09;96335.16;5049241;28;20033;-80
2021/06/23 10:38:47;;;;;;;;;;;;;;;;;;;;;
2021/06/23 10:42:23;;;;;;;;;;;;;;;;;;;;;
2021/06/23 10:45:04;;;;;;;1.10;0.80;;;;;;;30.47;35.22;96321.16;5050505;28;20041;-80
2021/06/23 10:48:01;;;;;;;1.65;0.88;;;;;;;32.71;31.59;96314.06;5049080;28;20149;-81
2021/06/23 10:50:33;;;;;;;2.15;1.00;;;;;;;31.18;33.17;96318.88;5056117;28;20029;-81
2021/06/23 10:53:25;;;;;;;1.25;0.90;;;;;;;31.63;33.77;96316.75;5048686;28;20041;-81
2021/06/23 10:55:54;;;;;;;2.63;0.90;;;;;;;32.49;30.74;96309.25;5048527;28;20028;-80
2021/06/23 10:58:27;;;;;;;4.82;3.08;;;;;;;32.63;31.82;96312.84;5031198;28;20028;-80
2021/06/23 11:01:19;;;;;;;2.10;1.08;;;;;;;30.50;34.81;96319.81;5039112;28;20037;-80
2021/06/23 11:04:05;;;;;;;2.05;1.02;;;;;;;30.05;36.10;96325.25;5044666;28;20036;-80
2021/06/23 11:06:45;;;;;;;1.40;1.00;;;;;;;30.21;36.34;96317.03;5040216;28;20038;-82
2021/06/23 11:09:28;;;;;;;1.65;1.00;;;;;;;30.89;32.76;96313.50;5047062;28;20025;-79
2021/06/23 11:11:54;;;;;;;;;;;;;;;32.44;31.79;96312.09;5056860;28;20067;-81
2021/06/23 11:14:21;;;;;;;3.45;1.00;;;;;;;32.41;32.04;96323.53;5049094;28;19955;-81
2021/06/23 11:16:47;;;;;;;1.40;0.77;;;;;;;31.53;32.49;96323.13;5047204;28;20031;-81
2021/06/23 11:19:13;;;;;;;0.77;0.77;;;;;;;29.97;35.80;96327.75;5066269;28;20043;-82
2021/06/23 11:21:45;;;;;;;1.42;0.98;;;;;;;28.86;37.53;96342.19;5049970;28;20086;-81
2021/06/23 11:24:18;;;;;;;2.25;1.10;;;;;;;30.65;34.63;96327.81;5033153;28;20118;-81
2021/06/23 11:26:45;;;;;;;2.40;1.45;;;;;;;32.75;32.65;96331.41;5050058;28;20044;-80
2021/06/23 11:29:11;;;;;;;1.75;1.10;;;;;;;31.46;34.66;96326.22;5034176;28;20103;-81
2021/06/23 11:31:45;;;;;;;2.35;1.20;;;;;;;31.61;34.37;96333.34;5051152;28;20218;-81
2021/06/23 11:34:11;;;;;;;2.97;1.00;;;;;;;31.18;34.72;96338.72;5044949;28;20062;-81
2021/06/23 11:36:38;;;;;;;1.45;0.98;;;;;;;31.60;33.45;96337.19;5051487;28;20031;-81
2021/06/23 11:39:05;;;;;;;1.45;1.08;;;;;;;29.17;38.83;96336.75;5038016;28;20040;-81
2021/06/23 11:41:31;;;;;;;1.58;1.17;;;;;;;27.95;42.34;96341.06;5049348;28;20029;-81
2021/06/23 11:43:57;;;;;;;2.15;1.25;;;;;;;27.66;43.12;96340.69;5067773;28;20039;-81
2021/06/23 11:46:23;;;;;;;4.75;1.40;;;;;;;27.22;41.63;96332.13;5051643;28;20057;-81
2021/06/23 11:48:49;;;;;;;1.13;0.90;;;;;;;28.25;40.90;96325.97;5050270;28;20037;-81
2021/06/23 11:51:15;;;;;;;1.20;1.08;;;;;;;27.93;39.73;96318.06;5051522;28;20021;-85
2021/06/23 11:53:41;;;;;;;1.65;1.50;;;;;;;27.73;39.20;96319.66;5053534;28;20054;-82
2021/06/23 11:56:08;;;;;;;1.13;1.00;;;;;;;26.85;43.39;96324.88;5047597;28;20032;-81
2021/06/23 11:58:33;;;;;;;2.97;1.50;;;;;;;26.77;43.13;96317.28;5047292;28;20033;-84